createdAt,value
2022-11-05T00:04:45.488Z,9.50
2022-11-05T00:09:48.534Z,9.40
2022-11-05T00:15:09.927Z,9.40
2022-11-05T00:20:13.750Z,9.40
2022-11-05T00:25:17.106Z,9.40
2022-11-05T00:30:22.985Z,9.30
2022-11-05T00:35:25.446Z,9.30
2022-11-05T00:40:27.942Z,9.40
2022-11-05T00:45:31.565Z,9.30
2022-11-05T00:50:34.433Z,9.30
2022-11-05T00:55:39.854Z,9.30
2022-11-05T01:00:44.793Z,9.30
2022-11-05T01:05:53.045Z,9.30
2022-11-05T01:11:01.045Z,9.30
2022-11-05T01:16:10.635Z,9.30
2022-11-05T01:21:15.852Z,9.30
2022-11-05T01:26:18.272Z,9.30
2022-11-05T01:31:21.408Z,9.30
2022-11-05T01:36:23.804Z,9.30
2022-11-05T01:41:26.234Z,9.30
2022-11-05T01:46:38.571Z,9.50
2022-11-05T01:51:43.282Z,9.30
2022-11-05T01:56:54.726Z,9.30
2022-11-05T02:01:57.402Z,9.30
2022-11-05T02:07:00.269Z,9.40
2022-11-05T02:12:02.850Z,9.50
2022-11-05T02:17:33.557Z,9.30
2022-11-05T02:22:41.713Z,9.30
2022-11-05T02:28:01.088Z,9.30
2022-11-05T02:33:43.852Z,9.30
2022-11-05T02:39:14.699Z,9.30
2022-11-05T02:44:40.068Z,9.30
2022-11-05T02:49:53.996Z,9.30
2022-11-05T02:55:21.964Z,9.30
2022-11-05T03:00:50.148Z,9.30
2022-11-05T03:06:08.708Z,9.40
2022-11-05T03:11:16.041Z,9.40
2022-11-05T03:16:32.721Z,9.40
2022-11-05T03:21:44.075Z,9.40
2022-11-05T03:26:58.513Z,9.40
2022-11-05T03:32:03.773Z,9.40
2022-11-05T03:37:07.897Z,9.50
2022-11-05T03:42:15.387Z,9.50
2022-11-05T03:47:22.681Z,9.50
2022-11-05T03:52:30.093Z,9.60
2022-11-05T03:57:37.149Z,9.50
2022-11-05T04:02:39.653Z,9.60
2022-11-05T04:08:02.779Z,9.60
2022-11-05T04:13:23.642Z,9.60
2022-11-05T04:18:26.082Z,9.60
2022-11-05T04:23:46.759Z,9.50
2022-11-05T04:29:09.181Z,9.80
2022-11-05T04:34:11.584Z,9.70
2022-11-05T04:39:14.049Z,9.50
2022-11-05T04:44:16.948Z,9.60
2022-11-05T04:49:19.400Z,9.70
2022-11-05T04:54:21.878Z,9.50
2022-11-05T04:59:24.213Z,9.50
2022-11-05T05:04:26.668Z,9.50
2022-11-05T05:09:29.108Z,9.50
2022-11-05T05:14:31.598Z,9.50
2022-11-05T05:19:54.023Z,9.50
2022-11-05T05:24:56.831Z,9.50
2022-11-05T05:29:59.709Z,9.50
2022-11-05T05:35:02.096Z,9.60
2022-11-05T05:40:04.847Z,9.50
2022-11-05T05:45:07.509Z,9.50
2022-11-05T05:50:09.859Z,9.50
2022-11-05T05:55:12.771Z,9.50
2022-11-05T06:00:15.365Z,9.70
2022-11-05T06:05:17.980Z,9.40
2022-11-05T06:10:20.401Z,9.40
2022-11-05T06:15:23.288Z,9.40
2022-11-05T06:20:25.728Z,9.40
2022-11-05T06:25:28.220Z,9.30
2022-11-05T06:30:31.033Z,9.30
2022-11-05T06:35:33.590Z,9.30
2022-11-05T06:40:35.976Z,9.30
2022-11-05T06:45:38.386Z,9.30
2022-11-05T06:50:44.653Z,9.40
2022-11-05T06:55:49.742Z,9.40
2022-11-05T07:00:52.224Z,9.40
2022-11-05T07:05:55.008Z,9.50
2022-11-05T07:10:57.329Z,9.60
2022-11-05T07:15:59.814Z,9.90
2022-11-05T07:21:02.257Z,9.80
2022-11-05T07:26:05.008Z,9.90
2022-11-05T07:31:07.437Z,9.40
2022-11-05T07:36:10.071Z,9.90
2022-11-05T07:41:12.413Z,9.90
2022-11-05T07:46:14.839Z,9.90
2022-11-05T07:51:17.305Z,10.00
2022-11-05T07:56:19.669Z,10.10
2022-11-05T08:01:22.276Z,10.20
2022-11-05T08:06:24.811Z,10.20
2022-11-05T08:11:27.194Z,10.50
2022-11-05T08:16:29.663Z,10.40
2022-11-05T08:21:32.238Z,10.40
2022-11-05T08:26:34.951Z,10.40
2022-11-05T08:31:37.341Z,10.40
2022-11-05T08:36:43.234Z,10.40
2022-11-05T08:41:47.173Z,10.40
2022-11-05T08:46:49.607Z,10.40
2022-11-05T08:51:52.018Z,10.40
2022-11-05T08:56:54.437Z,10.60
2022-11-05T09:01:57.031Z,10.50
2022-11-05T09:06:59.542Z,10.60
2022-11-05T09:12:17.148Z,10.60
2022-11-05T09:17:21.597Z,10.60
2022-11-05T09:22:24.037Z,10.60
2022-11-05T09:27:26.660Z,10.60
2022-11-05T09:32:34.002Z,10.70
2022-11-05T09:37:39.894Z,10.70
2022-11-05T09:42:50.247Z,10.80
2022-11-05T09:48:10.063Z,10.90
2022-11-05T09:53:18.255Z,10.90
2022-11-05T09:58:43.727Z,11.20
2022-11-05T10:03:50.175Z,11.10
2022-11-05T10:09:11.929Z,11.10
2022-11-05T10:14:23.099Z,11.00
2022-11-05T10:19:48.039Z,11.00
2022-11-05T10:24:52.068Z,11.20
2022-11-05T10:29:54.601Z,11.20
2022-11-05T10:35:00.519Z,11.10
2022-11-05T10:40:06.100Z,11.10
2022-11-05T10:45:11.487Z,11.10
2022-11-05T10:50:19.263Z,11.40
2022-11-05T10:55:35.267Z,11.10
2022-11-05T11:00:38.069Z,11.20
2022-11-05T11:05:40.975Z,11.20
2022-11-05T11:10:53.241Z,11.30
2022-11-05T11:16:19.687Z,11.30
2022-11-05T11:21:26.955Z,11.30
2022-11-05T11:26:36.095Z,11.30
2022-11-05T11:31:39.981Z,11.30
2022-11-05T11:36:48.917Z,11.40
2022-11-05T11:41:54.964Z,11.60
2022-11-05T11:47:02.096Z,11.30
2022-11-05T11:52:11.514Z,11.40
2022-11-05T11:57:29.819Z,11.30
2022-11-05T12:02:47.544Z,11.40
2022-11-05T12:07:58.135Z,11.50
2022-11-05T12:13:18.851Z,11.30
2022-11-05T12:18:45.968Z,11.30
2022-11-05T12:24:04.184Z,11.50
2022-11-05T12:29:25.351Z,11.60
2022-11-05T12:34:39.630Z,11.60
2022-11-05T12:39:51.244Z,11.60
2022-11-05T12:44:57.834Z,11.70
2022-11-05T12:50:15.322Z,11.70
2022-11-05T12:55:24.035Z,11.70
2022-11-05T13:00:29.173Z,11.70
2022-11-05T13:05:43.936Z,11.80
2022-11-05T13:10:55.103Z,11.90
2022-11-05T13:16:04.608Z,12.10
2022-11-05T13:21:10.589Z,12.20
2022-11-05T13:26:34.101Z,12.20
2022-11-05T13:31:45.514Z,12.20
2022-11-05T13:37:22.628Z,12.50
2022-11-05T13:42:52.909Z,12.60
2022-11-05T13:48:32.516Z,12.60
2022-11-05T13:53:34.901Z,12.50
2022-11-05T13:59:01.886Z,12.50
2022-11-05T14:04:04.923Z,12.30
2022-11-05T14:09:12.175Z,12.20
2022-11-05T14:14:44.444Z,12.00
2022-11-05T14:20:01.709Z,11.80
2022-11-05T14:25:19.383Z,11.60
2022-11-05T14:30:41.225Z,11.40
2022-11-05T14:35:43.975Z,11.30
2022-11-05T14:40:47.082Z,11.00
2022-11-05T14:46:19.079Z,10.80
2022-11-05T14:51:34.040Z,10.70
2022-11-05T14:56:54.879Z,10.50
2022-11-05T15:02:11.896Z,10.40
2022-11-05T15:07:33.631Z,10.20
2022-11-05T15:12:44.847Z,10.00
2022-11-05T15:18:11.514Z,10.00
2022-11-05T15:23:20.572Z,9.70
2022-11-05T15:28:50.803Z,9.50
2022-11-05T15:34:17.371Z,9.30
2022-11-05T15:39:33.706Z,9.20
2022-11-05T15:44:42.640Z,9.00
2022-11-05T15:49:48.061Z,8.80
2022-11-05T15:55:13.362Z,8.70
2022-11-05T16:00:22.019Z,8.50
2022-11-05T16:05:26.886Z,8.40
2022-11-05T16:10:32.028Z,8.30
2022-11-05T16:15:34.487Z,8.50
2022-11-05T16:20:38.707Z,8.00
2022-11-05T16:25:45.736Z,8.00
2022-11-05T16:30:58.096Z,7.80
2022-11-05T16:36:00.744Z,7.90
2022-11-05T16:41:03.214Z,7.60
2022-11-05T16:46:05.697Z,7.50
2022-11-05T16:51:11.342Z,7.40
2022-11-05T16:56:18.724Z,7.30
2022-11-05T17:01:23.204Z,7.20
2022-11-05T17:06:25.652Z,7.10
2022-11-05T17:11:28.085Z,7.10
2022-11-05T17:16:30.577Z,7.00
2022-11-05T17:21:33.001Z,6.90
2022-11-05T17:26:35.682Z,6.80
2022-11-05T17:31:40.168Z,6.80
2022-11-05T17:36:42.607Z,6.60
2022-11-05T17:41:45.121Z,6.50
2022-11-05T17:46:47.566Z,6.50
2022-11-05T17:51:49.970Z,6.40
2022-11-05T17:56:52.313Z,6.30
2022-11-05T18:01:54.791Z,6.30
2022-11-05T18:06:57.201Z,6.20
2022-11-05T18:11:59.921Z,6.10
2022-11-05T18:17:02.378Z,6.10
2022-11-05T18:22:04.964Z,6.00
2022-11-05T18:27:07.381Z,5.90
2022-11-05T18:32:09.864Z,5.90
2022-11-05T18:37:12.416Z,5.80
2022-11-05T18:42:14.874Z,5.80
2022-11-05T18:47:17.517Z,5.70
2022-11-05T18:52:19.920Z,5.60
2022-11-05T18:57:22.406Z,5.50
2022-11-05T19:02:25.026Z,5.50
2022-11-05T19:07:27.812Z,5.40
2022-11-05T19:12:30.223Z,5.40
2022-11-05T19:17:34.242Z,5.30
2022-11-05T19:22:37.046Z,5.30
2022-11-05T19:27:39.849Z,5.30
2022-11-05T19:32:42.323Z,5.40
2022-11-05T19:37:45.121Z,5.20
2022-11-05T19:42:47.814Z,5.00
2022-11-05T19:47:50.277Z,5.00
2022-11-05T19:52:52.734Z,5.00
2022-11-05T19:57:55.192Z,5.00
2022-11-05T20:02:57.855Z,4.90
2022-11-05T20:08:00.295Z,4.90
2022-11-05T20:13:02.707Z,4.80
2022-11-05T20:18:06.726Z,4.80
2022-11-05T20:23:09.373Z,4.80
2022-11-05T20:28:11.965Z,4.80
2022-11-05T20:33:14.573Z,5.00
2022-11-05T20:38:17.601Z,4.60
2022-11-05T20:43:20.180Z,4.40
2022-11-05T20:48:22.579Z,4.40
2022-11-05T20:53:25.179Z,4.50
2022-11-05T20:58:27.792Z,4.50
2022-11-05T21:03:30.310Z,4.50
2022-11-05T21:08:33.664Z,4.50
2022-11-05T21:13:36.557Z,4.40
2022-11-05T21:18:40.133Z,4.40
2022-11-05T21:23:45.653Z,4.30
2022-11-05T21:28:48.060Z,4.20
2022-11-05T21:33:55.002Z,4.10
2022-11-05T21:38:57.750Z,4.10
2022-11-05T21:44:00.145Z,4.00
2022-11-05T21:49:02.692Z,4.10
2022-11-05T21:54:23.668Z,4.10
2022-11-05T21:59:44.474Z,4.00
2022-11-05T22:04:49.893Z,3.90
2022-11-05T22:09:52.340Z,3.90
2022-11-05T22:14:55.145Z,3.90
2022-11-05T22:19:57.694Z,3.90
2022-11-05T22:25:00.425Z,4.00
2022-11-05T22:30:02.973Z,3.90
2022-11-05T22:35:06.124Z,3.80
2022-11-05T22:40:09.751Z,3.80
2022-11-05T22:45:12.280Z,3.80
2022-11-05T22:50:14.799Z,3.90
2022-11-05T22:55:17.310Z,3.90
2022-11-05T23:00:19.767Z,3.90
2022-11-05T23:05:22.177Z,3.90
2022-11-05T23:10:43.201Z,3.80
2022-11-05T23:16:04.120Z,3.70
2022-11-05T23:21:25.143Z,3.70
2022-11-05T23:26:46.053Z,3.70
2022-11-05T23:32:07.330Z,3.70
2022-11-05T23:37:28.272Z,3.80
2022-11-05T23:42:49.235Z,3.90
2022-11-05T23:48:10.779Z,4.00
2022-11-05T23:53:13.836Z,3.90
2022-11-05T23:58:17.022Z,3.90
